KBLF/BLF METAR and TAF weather

Enter ICAO airport designator
Station Type Date Time Source
KBLF METAR 2022/09/26 09:52 UTC NOAA

KBLF 260952Z AUTO 25005KT 10SM CLR 10/10 A2989 RMK AO2 SLP103 T01000100


Station Type Date Time Source
KBLF Decoded METAR 2022/09/26 09:52 UTC NOAA

BLUEFIELD MERCER COUNTY AIRPORT , WV, United States (KBLF) 37-18N 081-12W 873M
Sep 26, 2022 - 05:52 AM EDT / 2022.09.26 0952 UTC
Wind: from the WSW (250 degrees) at 6 MPH (5 KT):0
Visibility: 10 mile(s):0
Sky conditions: clear
Temperature: 50.0 F (10.0 C)
Dew Point: 50.0 F (10.0 C)
Relative Humidity: 100%
Pressure (altimeter): 29.89 in. Hg (1012 hPa)
ob: KBLF 260952Z AUTO 25005KT 10SM CLR 10/10 A2989 RMK AO2 SLP103 T01000100
cycle: 10

Station Type Date Time Source
KBLF TAF 2022/09/26 06:42 UTC NOAA

TAF KBLF 260539Z 2606/2706 25005KT P6SM OVC035
FM261400 28014G21KT P6SM SCT040 SCT250
FM262200 27006KT P6SM SCT250

Example: see airport list